sensor_id;sensor_type;location;lat;lon;timestamp;P1;durP1;ratioP1;P2;durP2;ratioP2
19891;SDS011;10108;50.142;8.724;2023-04-03T00:01:19;11.32;;;5.22;;
19891;SDS011;10108;50.142;8.724;2023-04-03T00:03:45;7.53;;;4.97;;
19891;SDS011;10108;50.142;8.724;2023-04-03T00:06:12;6.10;;;4.57;;
19891;SDS011;10108;50.142;8.724;2023-04-03T00:08:39;8.05;;;4.72;;
19891;SDS011;10108;50.142;8.724;2023-04-03T00:11:05;11.80;;;4.82;;
19891;SDS011;10108;50.142;8.724;2023-04-03T00:13:32;7.70;;;4.57;;
19891;SDS011;10108;50.142;8.724;2023-04-03T00:15:59;9.68;;;4.80;;
19891;SDS011;10108;50.142;8.724;2023-04-03T00:18:25;9.27;;;4.70;;
19891;SDS011;10108;50.142;8.724;2023-04-03T00:20:51;7.63;;;5.03;;
19891;SDS011;10108;50.142;8.724;2023-04-03T00:23:18;8.30;;;4.78;;
19891;SDS011;10108;50.142;8.724;2023-04-03T00:25:44;9.38;;;4.80;;
19891;SDS011;10108;50.142;8.724;2023-04-03T00:28:10;8.40;;;5.00;;
19891;SDS011;10108;50.142;8.724;2023-04-03T00:30:36;12.10;;;5.00;;
19891;SDS011;10108;50.142;8.724;2023-04-03T00:33:02;8.70;;;4.80;;
19891;SDS011;10108;50.142;8.724;2023-04-03T00:35:29;6.93;;;4.68;;
19891;SDS011;10108;50.142;8.724;2023-04-03T00:37:56;7.07;;;4.70;;
19891;SDS011;10108;50.142;8.724;2023-04-03T00:40:23;7.80;;;4.75;;
19891;SDS011;10108;50.142;8.724;2023-04-03T00:42:55;8.00;;;4.72;;
19891;SDS011;10108;50.142;8.724;2023-04-03T00:46:06;9.75;;;5.00;;
19891;SDS011;10108;50.142;8.724;2023-04-03T00:48:15;9.32;;;5.00;;
19891;SDS011;10108;50.142;8.724;2023-04-03T00:50:48;8.60;;;4.50;;
19891;SDS011;10108;50.142;8.724;2023-04-03T00:53:19;12.43;;;6.38;;
19891;SDS011;10108;50.142;8.724;2023-04-03T00:55:50;7.70;;;4.93;;
19891;SDS011;10108;50.142;8.724;2023-04-03T00:58:19;7.32;;;5.03;;
19891;SDS011;10108;50.142;8.724;2023-04-03T01:00:53;8.25;;;4.70;;
19891;SDS011;10108;50.142;8.724;2023-04-03T01:03:23;8.48;;;4.80;;
19891;SDS011;10108;50.142;8.724;2023-04-03T01:05:50;10.02;;;4.93;;
19891;SDS011;10108;50.142;8.724;2023-04-03T01:08:16;6.28;;;4.60;;
19891;SDS011;10108;50.142;8.724;2023-04-03T01:10:43;8.77;;;4.90;;
19891;SDS011;10108;50.142;8.724;2023-04-03T01:13:23;7.97;;;4.60;;
19891;SDS011;10108;50.142;8.724;2023-04-03T01:15:53;6.63;;;4.88;;
19891;SDS011;10108;50.142;8.724;2023-04-03T01:18:20;7.80;;;4.85;;
19891;SDS011;10108;50.142;8.724;2023-04-03T01:26:17;11.50;;;4.88;;
19891;SDS011;10108;50.142;8.724;2023-04-03T01:28:44;7.88;;;4.97;;
19891;SDS011;10108;50.142;8.724;2023-04-03T01:31:24;10.40;;;4.80;;
19891;SDS011;10108;50.142;8.724;2023-04-03T01:34:00;6.93;;;4.70;;
19891;SDS011;10108;50.142;8.724;2023-04-03T01:36:30;7.25;;;4.65;;
19891;SDS011;10108;50.142;8.724;2023-04-03T01:38:57;9.15;;;4.53;;
19891;SDS011;10108;50.142;8.724;2023-04-03T01:41:25;6.65;;;4.40;;
19891;SDS011;10108;50.142;8.724;2023-04-03T01:43:55;8.25;;;4.80;;
19891;SDS011;10108;50.142;8.724;2023-04-03T01:46:22;6.97;;;4.82;;
19891;SDS011;10108;50.142;8.724;2023-04-03T01:48:48;8.38;;;4.82;;
19891;SDS011;10108;50.142;8.724;2023-04-03T01:51:15;8.55;;;4.90;;
19891;SDS011;10108;50.142;8.724;2023-04-03T01:53:42;6.50;;;4.40;;
19891;SDS011;10108;50.142;8.724;2023-04-03T01:56:08;8.13;;;4.70;;
19891;SDS011;10108;50.142;8.724;2023-04-03T01:58:35;7.32;;;4.70;;
19891;SDS011;10108;50.142;8.724;2023-04-03T02:01:01;7.80;;;4.90;;
19891;SDS011;10108;50.142;8.724;2023-04-03T02:03:28;7.75;;;4.57;;
19891;SDS011;10108;50.142;8.724;2023-04-03T02:05:54;6.47;;;4.40;;
19891;SDS011;10108;50.142;8.724;2023-04-03T02:08:20;8.32;;;4.60;;
19891;SDS011;10108;50.142;8.724;2023-04-03T02:10:47;7.75;;;4.88;;
19891;SDS011;10108;50.142;8.724;2023-04-03T02:13:14;8.25;;;4.53;;
19891;SDS011;10108;50.142;8.724;2023-04-03T02:15:41;9.15;;;4.70;;
19891;SDS011;10108;50.142;8.724;2023-04-03T02:18:08;9.70;;;4.82;;
19891;SDS011;10108;50.142;8.724;2023-04-03T02:20:34;9.10;;;4.50;;
19891;SDS011;10108;50.142;8.724;2023-04-03T02:23:00;8.40;;;4.82;;
19891;SDS011;10108;50.142;8.724;2023-04-03T02:25:27;10.02;;;4.78;;
19891;SDS011;10108;50.142;8.724;2023-04-03T02:27:54;7.32;;;4.70;;
19891;SDS011;10108;50.142;8.724;2023-04-03T02:30:20;10.23;;;4.78;;
19891;SDS011;10108;50.142;8.724;2023-04-03T02:32:46;8.32;;;4.68;;
19891;SDS011;10108;50.142;8.724;2023-04-03T02:35:13;7.43;;;4.90;;
19891;SDS011;10108;50.142;8.724;2023-04-03T02:37:39;9.05;;;4.90;;
19891;SDS011;10108;50.142;8.724;2023-04-03T02:40:06;8.10;;;4.70;;
19891;SDS011;10108;50.142;8.724;2023-04-03T02:42:34;7.45;;;4.70;;
19891;SDS011;10108;50.142;8.724;2023-04-03T02:45:02;8.60;;;4.43;;
19891;SDS011;10108;50.142;8.724;2023-04-03T02:47:29;9.70;;;4.70;;
19891;SDS011;10108;50.142;8.724;2023-04-03T02:49:55;8.82;;;4.80;;
19891;SDS011;10108;50.142;8.724;2023-04-03T02:52:21;7.35;;;4.35;;
19891;SDS011;10108;50.142;8.724;2023-04-03T02:54:49;6.20;;;4.50;;
19891;SDS011;10108;50.142;8.724;2023-04-03T02:57:15;7.90;;;4.60;;
19891;SDS011;10108;50.142;8.724;2023-04-03T02:59:41;8.27;;;4.70;;
19891;SDS011;10108;50.142;8.724;2023-04-03T03:02:09;5.28;;;4.40;;
19891;SDS011;10108;50.142;8.724;2023-04-03T03:04:36;7.97;;;4.70;;
19891;SDS011;10108;50.142;8.724;2023-04-03T03:07:02;7.13;;;4.72;;
19891;SDS011;10108;50.142;8.724;2023-04-03T03:09:29;6.22;;;4.70;;
19891;SDS011;10108;50.142;8.724;2023-04-03T03:11:56;8.70;;;4.70;;
19891;SDS011;10108;50.142;8.724;2023-04-03T03:14:22;8.15;;;4.88;;
19891;SDS011;10108;50.142;8.724;2023-04-03T03:16:49;9.63;;;5.20;;
19891;SDS011;10108;50.142;8.724;2023-04-03T03:19:15;7.72;;;4.88;;
19891;SDS011;10108;50.142;8.724;2023-04-03T03:21:41;7.55;;;4.63;;
19891;SDS011;10108;50.142;8.724;2023-04-03T03:24:07;8.50;;;4.80;;
19891;SDS011;10108;50.142;8.724;2023-04-03T03:26:34;7.03;;;4.60;;
19891;SDS011;10108;50.142;8.724;2023-04-03T03:29:01;7.57;;;4.88;;
19891;SDS011;10108;50.142;8.724;2023-04-03T03:31:28;8.27;;;5.05;;
19891;SDS011;10108;50.142;8.724;2023-04-03T03:33:54;9.00;;;4.85;;
19891;SDS011;10108;50.142;8.724;2023-04-03T03:36:22;8.20;;;4.85;;
19891;SDS011;10108;50.142;8.724;2023-04-03T03:38:48;9.88;;;5.13;;
19891;SDS011;10108;50.142;8.724;2023-04-03T03:41:14;9.13;;;4.72;;
19891;SDS011;10108;50.142;8.724;2023-04-03T03:43:42;8.00;;;4.75;;
19891;SDS011;10108;50.142;8.724;2023-04-03T03:46:09;8.70;;;4.95;;
19891;SDS011;10108;50.142;8.724;2023-04-03T03:48:36;8.50;;;5.00;;
19891;SDS011;10108;50.142;8.724;2023-04-03T03:51:02;8.27;;;4.70;;
19891;SDS011;10108;50.142;8.724;2023-04-03T03:53:32;8.30;;;4.75;;
19891;SDS011;10108;50.142;8.724;2023-04-03T03:56:03;8.93;;;4.85;;
19891;SDS011;10108;50.142;8.724;2023-04-03T03:58:31;8.88;;;4.85;;
19891;SDS011;10108;50.142;8.724;2023-04-03T04:01:01;8.95;;;5.10;;
19891;SDS011;10108;50.142;8.724;2023-04-03T04:03:32;10.45;;;5.10;;
19891;SDS011;10108;50.142;8.724;2023-04-03T04:05:59;6.97;;;5.18;;
19891;SDS011;10108;50.142;8.724;2023-04-03T04:08:25;11.13;;;5.32;;
19891;SDS011;10108;50.142;8.724;2023-04-03T04:10:51;7.82;;;5.40;;
19891;SDS011;10108;50.142;8.724;2023-04-03T04:13:18;9.02;;;5.43;;
19891;SDS011;10108;50.142;8.724;2023-04-03T04:15:45;9.35;;;6.00;;
19891;SDS011;10108;50.142;8.724;2023-04-03T04:18:11;12.38;;;5.07;;
19891;SDS011;10108;50.142;8.724;2023-04-03T04:20:40;11.15;;;5.22;;
19891;SDS011;10108;50.142;8.724;2023-04-03T04:23:06;11.52;;;5.38;;
19891;SDS011;10108;50.142;8.724;2023-04-03T04:25:32;8.60;;;5.22;;
19891;SDS011;10108;50.142;8.724;2023-04-03T04:27:59;9.35;;;5.60;;
19891;SDS011;10108;50.142;8.724;2023-04-03T04:30:25;8.80;;;5.78;;
19891;SDS011;10108;50.142;8.724;2023-04-03T04:32:54;10.60;;;5.47;;
19891;SDS011;10108;50.142;8.724;2023-04-03T04:35:20;10.50;;;5.63;;
19891;SDS011;10108;50.142;8.724;2023-04-03T04:37:49;11.75;;;5.72;;
19891;SDS011;10108;50.142;8.724;2023-04-03T04:40:16;10.27;;;5.75;;
19891;SDS011;10108;50.142;8.724;2023-04-03T04:42:42;10.07;;;5.30;;
19891;SDS011;10108;50.142;8.724;2023-04-03T04:45:09;13.38;;;5.68;;
19891;SDS011;10108;50.142;8.724;2023-04-03T04:47:38;8.75;;;5.35;;
19891;SDS011;10108;50.142;8.724;2023-04-03T04:50:04;9.98;;;5.70;;
19891;SDS011;10108;50.142;8.724;2023-04-03T04:52:32;12.02;;;5.75;;
19891;SDS011;10108;50.142;8.724;2023-04-03T04:54:58;9.80;;;5.75;;
19891;SDS011;10108;50.142;8.724;2023-04-03T04:57:24;9.55;;;5.60;;
19891;SDS011;10108;50.142;8.724;2023-04-03T04:59:51;9.77;;;5.93;;
19891;SDS011;10108;50.142;8.724;2023-04-03T05:02:17;8.40;;;5.72;;
19891;SDS011;10108;50.142;8.724;2023-04-03T05:04:44;7.72;;;5.75;;
19891;SDS011;10108;50.142;8.724;2023-04-03T05:07:16;7.07;;;5.30;;
19891;SDS011;10108;50.142;8.724;2023-04-03T05:09:42;11.20;;;5.50;;
19891;SDS011;10108;50.142;8.724;2023-04-03T05:12:09;9.68;;;5.57;;
19891;SDS011;10108;50.142;8.724;2023-04-03T05:14:41;11.43;;;5.68;;
19891;SDS011;10108;50.142;8.724;2023-04-03T05:17:08;10.23;;;5.32;;
19891;SDS011;10108;50.142;8.724;2023-04-03T05:19:38;7.25;;;5.13;;
19891;SDS011;10108;50.142;8.724;2023-04-03T05:22:06;12.77;;;5.15;;
19891;SDS011;10108;50.142;8.724;2023-04-03T05:24:34;9.50;;;5.30;;
19891;SDS011;10108;50.142;8.724;2023-04-03T05:27:00;7.95;;;5.00;;
19891;SDS011;10108;50.142;8.724;2023-04-03T05:29:27;10.40;;;5.32;;
19891;SDS011;10108;50.142;8.724;2023-04-03T05:31:54;9.00;;;5.47;;
19891;SDS011;10108;50.142;8.724;2023-04-03T05:34:20;11.93;;;5.60;;
19891;SDS011;10108;50.142;8.724;2023-04-03T05:36:50;10.38;;;5.25;;
19891;SDS011;10108;50.142;8.724;2023-04-03T05:39:16;11.43;;;5.45;;
19891;SDS011;10108;50.142;8.724;2023-04-03T05:41:45;8.75;;;5.38;;
19891;SDS011;10108;50.142;8.724;2023-04-03T05:44:11;8.27;;;5.22;;
19891;SDS011;10108;50.142;8.724;2023-04-03T05:46:38;9.77;;;5.10;;
19891;SDS011;10108;50.142;8.724;2023-04-03T05:49:06;10.00;;;5.47;;
19891;SDS011;10108;50.142;8.724;2023-04-03T05:51:35;7.20;;;5.20;;
19891;SDS011;10108;50.142;8.724;2023-04-03T05:54:21;12.45;;;5.53;;
19891;SDS011;10108;50.142;8.724;2023-04-03T05:56:58;10.25;;;5.40;;
19891;SDS011;10108;50.142;8.724;2023-04-03T05:59:26;13.70;;;5.60;;
19891;SDS011;10108;50.142;8.724;2023-04-03T06:01:55;10.75;;;5.72;;
19891;SDS011;10108;50.142;8.724;2023-04-03T06:04:21;11.63;;;5.40;;
19891;SDS011;10108;50.142;8.724;2023-04-03T06:06:49;8.90;;;4.97;;
19891;SDS011;10108;50.142;8.724;2023-04-03T06:09:17;14.55;;;5.25;;
19891;SDS011;10108;50.142;8.724;2023-04-03T06:11:44;7.00;;;5.47;;
19891;SDS011;10108;50.142;8.724;2023-04-03T06:14:11;13.70;;;5.80;;
19891;SDS011;10108;50.142;8.724;2023-04-03T06:16:37;10.48;;;5.40;;
19891;SDS011;10108;50.142;8.724;2023-04-03T06:19:07;8.35;;;5.03;;
19891;SDS011;10108;50.142;8.724;2023-04-03T06:21:34;9.13;;;5.30;;
19891;SDS011;10108;50.142;8.724;2023-04-03T06:24:04;9.68;;;5.40;;
19891;SDS011;10108;50.142;8.724;2023-04-03T06:26:32;10.43;;;5.43;;
19891;SDS011;10108;50.142;8.724;2023-04-03T06:28:59;10.52;;;5.40;;
19891;SDS011;10108;50.142;8.724;2023-04-03T06:31:25;9.85;;;5.10;;
19891;SDS011;10108;50.142;8.724;2023-04-03T06:33:52;9.25;;;5.78;;
19891;SDS011;10108;50.142;8.724;2023-04-03T06:36:19;8.23;;;5.05;;
19891;SDS011;10108;50.142;8.724;2023-04-03T06:38:46;11.13;;;5.60;;
19891;SDS011;10108;50.142;8.724;2023-04-03T06:41:13;10.07;;;5.43;;
19891;SDS011;10108;50.142;8.724;2023-04-03T06:43:40;9.88;;;5.40;;
19891;SDS011;10108;50.142;8.724;2023-04-03T06:46:06;12.57;;;5.57;;
19891;SDS011;10108;50.142;8.724;2023-04-03T06:48:36;9.50;;;5.80;;
19891;SDS011;10108;50.142;8.724;2023-04-03T06:51:03;10.10;;;5.03;;
19891;SDS011;10108;50.142;8.724;2023-04-03T06:53:29;12.15;;;5.72;;
19891;SDS011;10108;50.142;8.724;2023-04-03T06:55:55;11.75;;;5.07;;
19891;SDS011;10108;50.142;8.724;2023-04-03T06:58:21;7.30;;;5.28;;
19891;SDS011;10108;50.142;8.724;2023-04-03T07:00:47;8.43;;;5.35;;
19891;SDS011;10108;50.142;8.724;2023-04-03T07:03:13;8.48;;;5.22;;
19891;SDS011;10108;50.142;8.724;2023-04-03T07:05:39;9.15;;;5.60;;
19891;SDS011;10108;50.142;8.724;2023-04-03T07:08:06;9.48;;;5.80;;
19891;SDS011;10108;50.142;8.724;2023-04-03T07:10:32;9.77;;;6.00;;
19891;SDS011;10108;50.142;8.724;2023-04-03T07:12:58;10.88;;;5.63;;
19891;SDS011;10108;50.142;8.724;2023-04-03T07:15:24;8.60;;;5.57;;
19891;SDS011;10108;50.142;8.724;2023-04-03T07:17:50;10.73;;;5.63;;
19891;SDS011;10108;50.142;8.724;2023-04-03T07:20:16;10.38;;;5.45;;
19891;SDS011;10108;50.142;8.724;2023-04-03T07:22:43;10.85;;;5.53;;
19891;SDS011;10108;50.142;8.724;2023-04-03T07:25:09;10.98;;;5.75;;
19891;SDS011;10108;50.142;8.724;2023-04-03T07:27:36;10.90;;;5.30;;
19891;SDS011;10108;50.142;8.724;2023-04-03T07:30:02;8.82;;;5.40;;
19891;SDS011;10108;50.142;8.724;2023-04-03T07:32:28;12.20;;;5.82;;
19891;SDS011;10108;50.142;8.724;2023-04-03T07:34:56;12.68;;;5.80;;
19891;SDS011;10108;50.142;8.724;2023-04-03T07:37:25;7.95;;;5.30;;
19891;SDS011;10108;50.142;8.724;2023-04-03T07:39:52;10.50;;;5.50;;
19891;SDS011;10108;50.142;8.724;2023-04-03T07:42:18;7.38;;;5.15;;
19891;SDS011;10108;50.142;8.724;2023-04-03T07:44:44;10.10;;;5.90;;
19891;SDS011;10108;50.142;8.724;2023-04-03T07:47:11;9.57;;;5.75;;
19891;SDS011;10108;50.142;8.724;2023-04-03T07:49:38;9.02;;;5.60;;
19891;SDS011;10108;50.142;8.724;2023-04-03T07:52:06;8.98;;;5.57;;
19891;SDS011;10108;50.142;8.724;2023-04-03T07:54:34;12.98;;;6.20;;
19891;SDS011;10108;50.142;8.724;2023-04-03T07:57:00;12.50;;;6.20;;
19891;SDS011;10108;50.142;8.724;2023-04-03T07:59:26;10.05;;;6.07;;
19891;SDS011;10108;50.142;8.724;2023-04-03T08:01:53;12.25;;;5.70;;
19891;SDS011;10108;50.142;8.724;2023-04-03T08:04:19;8.27;;;5.63;;
19891;SDS011;10108;50.142;8.724;2023-04-03T08:06:45;12.65;;;5.82;;
19891;SDS011;10108;50.142;8.724;2023-04-03T08:09:11;12.63;;;5.95;;
19891;SDS011;10108;50.142;8.724;2023-04-03T08:11:38;13.88;;;5.68;;
19891;SDS011;10108;50.142;8.724;2023-04-03T08:14:05;13.93;;;5.68;;
19891;SDS011;10108;50.142;8.724;2023-04-03T08:16:31;8.13;;;5.20;;
19891;SDS011;10108;50.142;8.724;2023-04-03T08:18:58;16.10;;;6.00;;
19891;SDS011;10108;50.142;8.724;2023-04-03T08:21:24;9.65;;;5.93;;
19891;SDS011;10108;50.142;8.724;2023-04-03T08:23:51;9.70;;;5.40;;
19891;SDS011;10108;50.142;8.724;2023-04-03T08:26:19;14.68;;;6.30;;
19891;SDS011;10108;50.142;8.724;2023-04-03T08:28:47;11.15;;;6.05;;
19891;SDS011;10108;50.142;8.724;2023-04-03T08:31:15;10.27;;;5.88;;
19891;SDS011;10108;50.142;8.724;2023-04-03T08:33:44;11.25;;;6.07;;
19891;SDS011;10108;50.142;8.724;2023-04-03T08:36:20;11.13;;;5.70;;
19891;SDS011;10108;50.142;8.724;2023-04-03T08:38:49;12.70;;;6.60;;
19891;SDS011;10108;50.142;8.724;2023-04-03T08:41:19;11.82;;;6.00;;
19891;SDS011;10108;50.142;8.724;2023-04-03T08:49:27;12.85;;;5.95;;
19891;SDS011;10108;50.142;8.724;2023-04-03T08:51:59;9.70;;;5.88;;
19891;SDS011;10108;50.142;8.724;2023-04-03T08:54:33;9.45;;;5.70;;
19891;SDS011;10108;50.142;8.724;2023-04-03T08:57:03;9.93;;;5.72;;
19891;SDS011;10108;50.142;8.724;2023-04-03T08:59:35;8.80;;;5.80;;
19891;SDS011;10108;50.142;8.724;2023-04-03T09:02:21;10.73;;;6.45;;
19891;SDS011;10108;50.142;8.724;2023-04-03T09:04:52;11.82;;;5.57;;
19891;SDS011;10108;50.142;8.724;2023-04-03T09:07:22;8.85;;;5.30;;
19891;SDS011;10108;50.142;8.724;2023-04-03T09:10:00;8.95;;;5.55;;
19891;SDS011;10108;50.142;8.724;2023-04-03T09:12:32;9.05;;;5.28;;
19891;SDS011;10108;50.142;8.724;2023-04-03T09:22:42;8.15;;;5.28;;
19891;SDS011;10108;50.142;8.724;2023-04-03T09:25:23;10.88;;;5.55;;
19891;SDS011;10108;50.142;8.724;2023-04-03T09:27:54;13.65;;;5.82;;
19891;SDS011;10108;50.142;8.724;2023-04-03T09:30:22;9.63;;;5.38;;
19891;SDS011;10108;50.142;8.724;2023-04-03T09:32:51;9.00;;;5.97;;
19891;SDS011;10108;50.142;8.724;2023-04-03T09:35:23;9.75;;;5.53;;
19891;SDS011;10108;50.142;8.724;2023-04-03T09:37:54;11.25;;;5.50;;
19891;SDS011;10108;50.142;8.724;2023-04-03T09:42:55;14.45;;;5.55;;
19891;SDS011;10108;50.142;8.724;2023-04-03T09:45:28;8.70;;;5.82;;
19891;SDS011;10108;50.142;8.724;2023-04-03T09:53:35;10.00;;;5.70;;
19891;SDS011;10108;50.142;8.724;2023-04-03T09:56:05;8.75;;;5.60;;
19891;SDS011;10108;50.142;8.724;2023-04-03T09:58:42;9.68;;;5.43;;
19891;SDS011;10108;50.142;8.724;2023-04-03T10:01:30;8.85;;;5.97;;
19891;SDS011;10108;50.142;8.724;2023-04-03T10:06:34;10.73;;;5.97;;
19891;SDS011;10108;50.142;8.724;2023-04-03T10:09:18;9.05;;;5.80;;
19891;SDS011;10108;50.142;8.724;2023-04-03T10:12:27;11.38;;;6.00;;
19891;SDS011;10108;50.142;8.724;2023-04-03T10:14:53;11.27;;;6.40;;
19891;SDS011;10108;50.142;8.724;2023-04-03T10:20:33;9.63;;;6.05;;
19891;SDS011;10108;50.142;8.724;2023-04-03T10:23:14;10.48;;;6.70;;
19891;SDS011;10108;50.142;8.724;2023-04-03T10:28:43;10.85;;;6.40;;
19891;SDS011;10108;50.142;8.724;2023-04-03T10:34:29;9.85;;;6.38;;
19891;SDS011;10108;50.142;8.724;2023-04-03T10:40:05;9.68;;;6.50;;
19891;SDS011;10108;50.142;8.724;2023-04-03T10:51:28;10.60;;;6.25;;
19891;SDS011;10108;50.142;8.724;2023-04-03T10:57:34;8.93;;;6.20;;
19891;SDS011;10108;50.142;8.724;2023-04-03T11:00:05;10.30;;;6.25;;
19891;SDS011;10108;50.142;8.724;2023-04-03T11:02:51;11.02;;;5.90;;
19891;SDS011;10108;50.142;8.724;2023-04-03T11:05:39;9.40;;;6.32;;
19891;SDS011;10108;50.142;8.724;2023-04-03T11:08:13;9.68;;;6.18;;
19891;SDS011;10108;50.142;8.724;2023-04-03T11:10:45;11.77;;;5.70;;
19891;SDS011;10108;50.142;8.724;2023-04-03T11:13:58;8.65;;;6.00;;
19891;SDS011;10108;50.142;8.724;2023-04-03T11:16:08;11.30;;;5.70;;
19891;SDS011;10108;50.142;8.724;2023-04-03T11:21:35;7.55;;;5.45;;
19891;SDS011;10108;50.142;8.724;2023-04-03T11:24:11;8.20;;;5.40;;
19891;SDS011;10108;50.142;8.724;2023-04-03T11:26:46;8.45;;;5.75;;
19891;SDS011;10108;50.142;8.724;2023-04-03T11:29:17;9.00;;;5.80;;
19891;SDS011;10108;50.142;8.724;2023-04-03T11:34:40;7.88;;;5.30;;
19891;SDS011;10108;50.142;8.724;2023-04-03T11:37:17;8.23;;;5.65;;
19891;SDS011;10108;50.142;8.724;2023-04-03T11:42:46;10.70;;;5.40;;
19891;SDS011;10108;50.142;8.724;2023-04-03T11:45:16;9.55;;;5.30;;
19891;SDS011;10108;50.142;8.724;2023-04-03T11:55:46;9.07;;;5.80;;
19891;SDS011;10108;50.142;8.724;2023-04-03T11:58:30;7.20;;;5.88;;
19891;SDS011;10108;50.142;8.724;2023-04-03T12:01:00;8.65;;;5.80;;
19891;SDS011;10108;50.142;8.724;2023-04-03T12:14:00;9.10;;;5.57;;
19891;SDS011;10108;50.142;8.724;2023-04-03T12:16:40;7.72;;;5.50;;
19891;SDS011;10108;50.142;8.724;2023-04-03T12:22:10;7.93;;;5.53;;
19891;SDS011;10108;50.142;8.724;2023-04-03T12:24:41;14.23;;;5.72;;
19891;SDS011;10108;50.142;8.724;2023-04-03T12:27:18;10.60;;;5.80;;
19891;SDS011;10108;50.142;8.724;2023-04-03T12:35:24;8.15;;;5.45;;
19891;SDS011;10108;50.142;8.724;2023-04-03T12:41:30;8.52;;;5.78;;
19891;SDS011;10108;50.142;8.724;2023-04-03T12:44:20;7.38;;;5.68;;
19891;SDS011;10108;50.142;8.724;2023-04-03T12:47:06;8.18;;;5.78;;
19891;SDS011;10108;50.142;8.724;2023-04-03T12:49:53;8.57;;;6.20;;
19891;SDS011;10108;50.142;8.724;2023-04-03T12:52:28;7.97;;;5.80;;
19891;SDS011;10108;50.142;8.724;2023-04-03T12:55:00;8.40;;;5.88;;
19891;SDS011;10108;50.142;8.724;2023-04-03T12:57:29;9.48;;;5.88;;
19891;SDS011;10108;50.142;8.724;2023-04-03T12:59:56;10.45;;;5.65;;
19891;SDS011;10108;50.142;8.724;2023-04-03T13:04:53;8.85;;;6.10;;
19891;SDS011;10108;50.142;8.724;2023-04-03T13:10:00;7.82;;;5.55;;
19891;SDS011;10108;50.142;8.724;2023-04-03T13:12:30;12.13;;;5.70;;
19891;SDS011;10108;50.142;8.724;2023-04-03T13:14:57;9.85;;;6.20;;
19891;SDS011;10108;50.142;8.724;2023-04-03T13:17:26;10.32;;;5.78;;
19891;SDS011;10108;50.142;8.724;2023-04-03T13:19:53;10.07;;;5.90;;
19891;SDS011;10108;50.142;8.724;2023-04-03T13:22:27;10.68;;;6.07;;
19891;SDS011;10108;50.142;8.724;2023-04-03T13:24:55;11.82;;;6.65;;
19891;SDS011;10108;50.142;8.724;2023-04-03T13:27:24;10.00;;;6.18;;
19891;SDS011;10108;50.142;8.724;2023-04-03T13:29:52;10.40;;;6.20;;
19891;SDS011;10108;50.142;8.724;2023-04-03T13:32:22;10.27;;;6.15;;
19891;SDS011;10108;50.142;8.724;2023-04-03T13:34:50;11.13;;;6.20;;
19891;SDS011;10108;50.142;8.724;2023-04-03T13:37:24;12.95;;;6.38;;
19891;SDS011;10108;50.142;8.724;2023-04-03T13:42:32;9.23;;;6.00;;
19891;SDS011;10108;50.142;8.724;2023-04-03T13:45:18;9.55;;;6.00;;
19891;SDS011;10108;50.142;8.724;2023-04-03T13:47:46;12.18;;;6.20;;
19891;SDS011;10108;50.142;8.724;2023-04-03T13:50:24;9.05;;;6.10;;
19891;SDS011;10108;50.142;8.724;2023-04-03T13:53:01;11.68;;;6.07;;
19891;SDS011;10108;50.142;8.724;2023-04-03T13:55:35;9.32;;;5.90;;
19891;SDS011;10108;50.142;8.724;2023-04-03T13:58:21;9.05;;;5.90;;
19891;SDS011;10108;50.142;8.724;2023-04-03T14:00:51;9.13;;;5.65;;
19891;SDS011;10108;50.142;8.724;2023-04-03T14:03:27;8.77;;;5.63;;
19891;SDS011;10108;50.142;8.724;2023-04-03T14:05:56;10.40;;;6.38;;
19891;SDS011;10108;50.142;8.724;2023-04-03T14:08:23;9.15;;;5.30;;
19891;SDS011;10108;50.142;8.724;2023-04-03T14:10:50;11.43;;;6.28;;
19891;SDS011;10108;50.142;8.724;2023-04-03T14:13:17;11.57;;;6.43;;
19891;SDS011;10108;50.142;8.724;2023-04-03T14:15:46;11.45;;;6.00;;
19891;SDS011;10108;50.142;8.724;2023-04-03T14:18:15;9.32;;;5.60;;
19891;SDS011;10108;50.142;8.724;2023-04-03T14:20:43;10.65;;;5.50;;
19891;SDS011;10108;50.142;8.724;2023-04-03T14:23:13;8.50;;;5.20;;
19891;SDS011;10108;50.142;8.724;2023-04-03T14:25:39;8.98;;;5.25;;
19891;SDS011;10108;50.142;8.724;2023-04-03T14:28:12;8.40;;;5.18;;
19891;SDS011;10108;50.142;8.724;2023-04-03T14:30:47;6.78;;;5.22;;
19891;SDS011;10108;50.142;8.724;2023-04-03T14:33:15;6.75;;;4.90;;
19891;SDS011;10108;50.142;8.724;2023-04-03T14:35:44;7.57;;;5.13;;
19891;SDS011;10108;50.142;8.724;2023-04-03T14:38:27;9.15;;;5.32;;
19891;SDS011;10108;50.142;8.724;2023-04-03T14:40:55;8.68;;;5.10;;
19891;SDS011;10108;50.142;8.724;2023-04-03T14:43:23;10.45;;;5.53;;
19891;SDS011;10108;50.142;8.724;2023-04-03T14:45:49;7.65;;;5.18;;
19891;SDS011;10108;50.142;8.724;2023-04-03T14:48:21;7.53;;;4.85;;
19891;SDS011;10108;50.142;8.724;2023-04-03T14:50:49;7.28;;;4.95;;
19891;SDS011;10108;50.142;8.724;2023-04-03T14:53:17;11.48;;;5.10;;
19891;SDS011;10108;50.142;8.724;2023-04-03T14:55:48;10.38;;;5.32;;
19891;SDS011;10108;50.142;8.724;2023-04-03T14:58:16;8.05;;;5.07;;
19891;SDS011;10108;50.142;8.724;2023-04-03T15:00:44;7.75;;;5.00;;
19891;SDS011;10108;50.142;8.724;2023-04-03T15:03:17;7.80;;;4.97;;
19891;SDS011;10108;50.142;8.724;2023-04-03T15:05:45;7.60;;;5.03;;
19891;SDS011;10108;50.142;8.724;2023-04-03T15:08:34;9.32;;;4.80;;
19891;SDS011;10108;50.142;8.724;2023-04-03T15:10:59;6.93;;;5.20;;
19891;SDS011;10108;50.142;8.724;2023-04-03T15:13:26;6.68;;;4.80;;
19891;SDS011;10108;50.142;8.724;2023-04-03T15:15:52;8.10;;;5.03;;
19891;SDS011;10108;50.142;8.724;2023-04-03T15:18:22;7.07;;;5.00;;
19891;SDS011;10108;50.142;8.724;2023-04-03T15:20:53;7.38;;;4.88;;
19891;SDS011;10108;50.142;8.724;2023-04-03T15:23:20;8.73;;;5.40;;
19891;SDS011;10108;50.142;8.724;2023-04-03T15:25:51;7.63;;;5.40;;
19891;SDS011;10108;50.142;8.724;2023-04-03T15:28:35;6.80;;;5.18;;
19891;SDS011;10108;50.142;8.724;2023-04-03T15:31:03;8.00;;;5.25;;
19891;SDS011;10108;50.142;8.724;2023-04-03T15:33:30;8.18;;;5.30;;
19891;SDS011;10108;50.142;8.724;2023-04-03T15:35:57;6.25;;;4.85;;
19891;SDS011;10108;50.142;8.724;2023-04-03T15:38:24;9.73;;;5.53;;
19891;SDS011;10108;50.142;8.724;2023-04-03T15:40:50;9.20;;;5.20;;
19891;SDS011;10108;50.142;8.724;2023-04-03T15:43:16;8.13;;;5.85;;
19891;SDS011;10108;50.142;8.724;2023-04-03T15:45:43;8.90;;;5.40;;
19891;SDS011;10108;50.142;8.724;2023-04-03T15:48:10;7.15;;;5.00;;
19891;SDS011;10108;50.142;8.724;2023-04-03T15:50:38;7.78;;;5.35;;
19891;SDS011;10108;50.142;8.724;2023-04-03T15:53:04;8.40;;;5.43;;
19891;SDS011;10108;50.142;8.724;2023-04-03T15:55:32;9.57;;;4.93;;
19891;SDS011;10108;50.142;8.724;2023-04-03T15:58:02;9.43;;;5.50;;
19891;SDS011;10108;50.142;8.724;2023-04-03T16:00:30;7.88;;;4.80;;
19891;SDS011;10108;50.142;8.724;2023-04-03T16:03:08;8.68;;;5.18;;
19891;SDS011;10108;50.142;8.724;2023-04-03T16:05:37;7.78;;;5.03;;
19891;SDS011;10108;50.142;8.724;2023-04-03T16:08:05;8.93;;;5.18;;
19891;SDS011;10108;50.142;8.724;2023-04-03T16:10:33;10.15;;;5.18;;
19891;SDS011;10108;50.142;8.724;2023-04-03T16:13:00;9.95;;;5.13;;
19891;SDS011;10108;50.142;8.724;2023-04-03T16:15:27;8.75;;;4.88;;
19891;SDS011;10108;50.142;8.724;2023-04-03T16:17:54;6.50;;;4.72;;
19891;SDS011;10108;50.142;8.724;2023-04-03T16:20:20;8.88;;;5.10;;
19891;SDS011;10108;50.142;8.724;2023-04-03T16:22:47;8.30;;;5.13;;
19891;SDS011;10108;50.142;8.724;2023-04-03T16:25:14;7.78;;;4.72;;
19891;SDS011;10108;50.142;8.724;2023-04-03T16:27:40;6.53;;;4.72;;
19891;SDS011;10108;50.142;8.724;2023-04-03T16:30:07;7.72;;;4.43;;
19891;SDS011;10108;50.142;8.724;2023-04-03T16:32:35;8.50;;;5.13;;
19891;SDS011;10108;50.142;8.724;2023-04-03T16:35:02;8.90;;;4.95;;
19891;SDS011;10108;50.142;8.724;2023-04-03T16:37:29;8.32;;;4.90;;